東京/横田 の空港の天気 - METARとTAF

横田飛行場 ( RJTY / OKO ) - 東京都福生市
飛行場実況気象(Metar)
観測時間08/17 11:57 JST (08/17 02:57 UTC)
風向・風速北北東 2m/s
視程10km以上
天気現象
全天を覆う雲 雲底高度 700m
気温26℃
湿度74%
気圧1011.6hPa
METARRJTY 170257Z COR 03004KT 10SM OVC023 26/21 A2988 RMK AO2 SLP116 $ COR 0303
過去の天気等 Google飛行場航空写真 Wunderground天気予報

過去48時間のMETAR

飛行場予報(TAF)
発表時間: 8/17 09:08 JST (8/17 00:08 UTC)
予報対象時間: 17日9時 JST ~ 18日12時 JST
風向・風速北北西 3m/s
視程10km以上
全天の4割程度の雲 雲底高度 760m
全天の8割程度の雲 雲底高度 1,520m
17日9時 JST ~ 17日11時 JST に一時的に
全天の8割程度の雲 雲底高度 520m
17日20時 JST ~ 17日21時 JST に徐々に
風向・風速東 3m/s
視程8,000m
天気現象弱いしゅう雨 もや
全天の8割程度の雲 雲底高度 760m
18日2時 JST ~ 18日3時 JST に徐々に
風向・風速東 3m/s
視程6,000m
天気現象弱い霧雨 もや
全天の8割程度の雲 雲底高度 460m
TAF AMD RJTY 170008Z 1700/1803 34006KT 9999 SCT025 BKN050 QNH2979INS
TEMPO 1700/1702 BKN017
BECMG 1711/1712 10006KT 8000 -SHRA BR BKN025 QNH2982INS
BECMG 1717/1718 10006KT 6000 -DZ BR BKN015 QNH2981INS TX28/1706Z TN21/1718Z
日本の空港のMETAR・TAFへのリンク

RJTT 東京国際空港
RJAA 新東京国際空港
RJBB 関西国際空港
RJOO 大阪空港
RJGG 中部国際空港
RJCC 新千歳空港
RJFF 福岡空港
ROAH 那覇空港


RJEC 旭川空港
RJCH 函館空港
RJCK 釧路空港
RJCM 女満別空港
RJCB 帯広空港
RJSA 青森空港
RJSS 仙台空港
RJSK 秋田空港
RJSF 福島空港
RJAH 茨城空港
RJSN 新潟空港
RJNT 富山空港
RJNK 小松飛行場
RJNS 静岡空港
RJOH 美保飛行場
RJOC 出雲空港
RJOB 岡山空港
RJOA 広島空港
RJOI 岩国飛行場
RJOT 高松空港
RJOM 松山空港
RJOK 高知空港
RJFR 北九州空港
RJFT 熊本空港
RJFU 長崎空港
RJFS 佐賀空港
RJFO 大分空港
RJFM 宮崎空港
RJFK 鹿児島空港
ROIG 石垣島空港
RJTY 横田飛行場
ROTM 普天間飛行場
RODN 嘉手納飛行場